createdAt,value
2022-12-26T00:01:28.256Z,0.77
2022-12-26T00:03:57.985Z,0.95
2022-12-26T00:06:29.069Z,0.80
2022-12-26T00:08:58.175Z,0.43
2022-12-26T00:11:27.537Z,0.52
2022-12-26T00:13:58.479Z,1.40
2022-12-26T00:16:27.330Z,0.25
2022-12-26T00:18:57.507Z,0.70
2022-12-26T00:21:29.093Z,0.35
2022-12-26T00:23:59.028Z,0.68
2022-12-26T00:26:29.896Z,0.52
2022-12-26T00:28:59.238Z,0.88
2022-12-26T00:31:29.509Z,0.50
2022-12-26T00:33:59.139Z,0.20
2022-12-26T00:36:29.756Z,0.45
2022-12-26T00:38:58.694Z,0.52
2022-12-26T00:41:26.997Z,0.65
2022-12-26T00:43:56.205Z,0.10
2022-12-26T00:46:28.472Z,0.50
2022-12-26T00:48:58.389Z,0.28
2022-12-26T00:51:26.705Z,0.47
2022-12-26T00:53:54.904Z,0.10
2022-12-26T00:56:23.344Z,0.30
2022-12-26T00:58:52.243Z,0.17
2022-12-26T01:01:22.341Z,0.17
2022-12-26T01:03:52.273Z,0.43
2022-12-26T01:06:21.764Z,0.38
2022-12-26T01:08:50.294Z,0.40
2022-12-26T01:11:39.364Z,0.50
2022-12-26T01:14:09.215Z,0.25
2022-12-26T01:16:38.625Z,0.28
2022-12-26T01:19:07.347Z,0.52
2022-12-26T01:21:37.173Z,0.30
2022-12-26T01:24:06.406Z,0.40
2022-12-26T01:26:36.000Z,0.20
2022-12-26T01:29:04.223Z,0.40
2022-12-26T01:31:32.366Z,0.40
2022-12-26T01:34:01.265Z,0.47
2022-12-26T01:36:29.427Z,0.28
2022-12-26T01:38:58.934Z,0.50
2022-12-26T01:41:27.977Z,0.20
2022-12-26T01:43:58.188Z,0.35
2022-12-26T01:46:32.551Z,0.35
2022-12-26T01:49:03.577Z,0.60
2022-12-26T01:51:37.945Z,0.30
2022-12-26T01:54:40.130Z,0.63
2022-12-26T01:57:01.430Z,0.40
2022-12-26T01:59:33.697Z,0.40
2022-12-26T02:02:02.575Z,0.40
2022-12-26T02:04:52.891Z,0.28
2022-12-26T02:07:21.309Z,0.38
2022-12-26T02:09:50.880Z,0.32
2022-12-26T02:12:37.067Z,0.20
2022-12-26T02:15:09.906Z,0.38
2022-12-26T02:17:39.182Z,0.00
2022-12-26T02:20:17.828Z,0.17
2022-12-26T02:23:09.635Z,0.10
2022-12-26T02:26:09.540Z,0.25
2022-12-26T02:28:57.730Z,0.00
2022-12-26T02:31:37.746Z,0.00
2022-12-26T02:34:14.988Z,0.10
2022-12-26T02:36:58.185Z,0.00
2022-12-26T02:39:44.763Z,0.00
2022-12-26T02:42:27.661Z,0.00
2022-12-26T02:45:20.981Z,0.10
2022-12-26T02:47:57.820Z,0.03
2022-12-26T02:50:51.618Z,0.00
2022-12-26T02:53:44.679Z,0.00
2022-12-26T02:56:41.348Z,0.10
2022-12-26T02:59:56.099Z,0.00
2022-12-26T03:02:47.248Z,0.10
2022-12-26T03:05:40.524Z,0.00
2022-12-26T03:08:37.208Z,0.00
2022-12-26T03:11:23.240Z,0.00
2022-12-26T03:13:53.288Z,0.00
2022-12-26T03:16:42.135Z,0.00
2022-12-26T03:19:13.438Z,0.00
2022-12-26T03:21:46.959Z,0.00
2022-12-26T03:24:18.288Z,0.00
2022-12-26T03:26:52.511Z,0.00
2022-12-26T03:29:41.109Z,0.00
2022-12-26T03:32:11.770Z,0.00
2022-12-26T03:34:43.475Z,0.00
2022-12-26T03:37:48.910Z,0.00
2022-12-26T03:40:52.250Z,0.00
2022-12-26T03:43:45.782Z,0.03
2022-12-26T03:46:41.618Z,0.00
2022-12-26T03:49:34.859Z,0.00
2022-12-26T03:52:24.533Z,0.00
2022-12-26T03:55:16.750Z,0.00
2022-12-26T03:58:08.881Z,0.00
2022-12-26T04:00:56.367Z,0.00
2022-12-26T04:03:44.158Z,0.00
2022-12-26T04:06:36.882Z,0.00
2022-12-26T04:09:28.617Z,0.13
2022-12-26T04:12:17.832Z,0.00
2022-12-26T04:15:09.044Z,0.05
2022-12-26T04:17:58.634Z,0.15
2022-12-26T04:20:32.300Z,0.10
2022-12-26T04:23:23.610Z,0.00
2022-12-26T04:26:16.663Z,0.22
2022-12-26T04:29:03.779Z,0.10
2022-12-26T04:31:54.827Z,0.00
2022-12-26T04:34:46.536Z,0.28
2022-12-26T04:37:39.018Z,0.25
2022-12-26T04:40:30.021Z,0.08
2022-12-26T04:43:49.868Z,0.00
2022-12-26T04:46:06.776Z,0.00
2022-12-26T04:48:59.394Z,0.00
2022-12-26T04:51:27.769Z,0.10
2022-12-26T04:53:59.246Z,0.00
2022-12-26T04:56:27.559Z,0.03
2022-12-26T04:58:55.676Z,0.13
2022-12-26T05:01:42.749Z,0.00
2022-12-26T05:04:31.745Z,0.20
2022-12-26T05:07:18.825Z,0.00
2022-12-26T05:09:49.627Z,0.00
2022-12-26T05:12:17.861Z,0.00
2022-12-26T05:14:52.260Z,0.10
2022-12-26T05:17:39.420Z,0.10
2022-12-26T05:20:25.488Z,0.00
2022-12-26T05:23:11.568Z,0.10
2022-12-26T05:26:01.149Z,0.10
2022-12-26T05:28:47.148Z,0.20
2022-12-26T05:31:17.727Z,0.05
2022-12-26T05:34:04.974Z,0.65
2022-12-26T05:36:37.288Z,0.10
2022-12-26T05:39:06.080Z,0.10
2022-12-26T05:41:34.212Z,0.40
2022-12-26T05:44:02.543Z,0.10
2022-12-26T05:46:30.791Z,0.10
2022-12-26T05:49:00.367Z,0.13
2022-12-26T05:51:28.907Z,0.10
2022-12-26T05:53:57.060Z,0.22
2022-12-26T05:56:25.687Z,0.00
2022-12-26T05:58:56.429Z,0.10
2022-12-26T06:01:26.002Z,0.08
2022-12-26T06:03:56.998Z,0.25
2022-12-26T06:06:27.882Z,0.00
2022-12-26T06:08:57.875Z,0.20
2022-12-26T06:11:27.256Z,0.05
2022-12-26T06:13:56.022Z,0.00
2022-12-26T06:21:08.730Z,0.00
2022-12-26T06:23:38.973Z,0.00
2022-12-26T06:26:09.678Z,0.00
2022-12-26T06:28:40.168Z,0.17
2022-12-26T06:31:10.673Z,0.10
2022-12-26T06:33:39.192Z,0.03
2022-12-26T06:36:09.572Z,0.10
2022-12-26T06:38:39.371Z,0.00
2022-12-26T06:41:08.546Z,0.30
2022-12-26T06:43:37.004Z,0.10
2022-12-26T06:46:07.526Z,0.00
2022-12-26T06:48:39.618Z,0.00
2022-12-26T06:51:10.994Z,0.00
2022-12-26T06:53:41.073Z,0.00
2022-12-26T06:56:11.020Z,0.10
2022-12-26T06:58:39.951Z,0.20
2022-12-26T07:01:09.146Z,0.05
2022-12-26T07:03:37.441Z,0.17
2022-12-26T07:06:07.397Z,0.13
2022-12-26T07:08:35.981Z,0.10
2022-12-26T07:11:05.580Z,0.15
2022-12-26T07:13:33.751Z,0.00
2022-12-26T07:16:01.931Z,0.00
2022-12-26T07:18:30.207Z,0.17
2022-12-26T07:20:58.340Z,0.00
2022-12-26T07:23:26.582Z,0.08
2022-12-26T07:25:54.741Z,0.15
2022-12-26T07:28:24.292Z,0.20
2022-12-26T07:30:52.410Z,0.00
2022-12-26T07:33:20.659Z,0.40
2022-12-26T07:35:49.421Z,0.17
2022-12-26T07:38:18.723Z,0.25
2022-12-26T07:40:46.920Z,0.13
2022-12-26T07:43:15.149Z,0.20
2022-12-26T07:45:45.930Z,0.82
2022-12-26T07:48:14.408Z,0.20
2022-12-26T07:50:45.556Z,0.00
2022-12-26T07:53:13.861Z,0.63
2022-12-26T07:55:42.072Z,0.35
2022-12-26T07:58:10.388Z,0.50
2022-12-26T08:00:38.522Z,0.35
2022-12-26T08:03:10.515Z,0.10
2022-12-26T08:05:39.891Z,0.05
2022-12-26T08:08:07.992Z,0.20
2022-12-26T08:10:36.243Z,0.05
2022-12-26T08:13:04.343Z,0.20
2022-12-26T08:15:32.551Z,0.90
2022-12-26T08:18:00.619Z,0.30
2022-12-26T08:20:30.208Z,0.45
2022-12-26T08:25:26.421Z,0.10
2022-12-26T08:27:54.388Z,0.38
2022-12-26T08:30:22.583Z,0.32
2022-12-26T08:32:52.119Z,0.20
2022-12-26T08:35:20.352Z,0.38
2022-12-26T08:37:49.813Z,0.22
2022-12-26T08:40:26.844Z,0.15
2022-12-26T08:43:44.987Z,0.15
2022-12-26T08:46:01.809Z,0.10
2022-12-26T08:48:30.662Z,0.45
2022-12-26T08:51:00.476Z,0.22
2022-12-26T08:53:32.935Z,1.02
2022-12-26T08:56:01.378Z,0.13
2022-12-26T08:58:29.884Z,0.28
2022-12-26T09:01:07.551Z,0.22
2022-12-26T09:03:35.970Z,0.00
2022-12-26T09:06:06.530Z,0.10
2022-12-26T09:08:38.109Z,0.47
2022-12-26T09:11:07.805Z,0.40
2022-12-26T09:13:36.868Z,0.20
2022-12-26T09:16:07.659Z,0.50
2022-12-26T09:18:36.168Z,0.28
2022-12-26T09:21:06.679Z,0.20
2022-12-26T09:23:37.207Z,0.20
2022-12-26T09:26:07.065Z,0.30
2022-12-26T09:28:35.930Z,0.30
2022-12-26T09:31:05.734Z,0.22
2022-12-26T09:33:37.591Z,0.13
2022-12-26T09:36:12.527Z,0.20
2022-12-26T09:38:44.073Z,0.40
2022-12-26T09:41:30.556Z,0.55
2022-12-26T09:44:05.573Z,0.32
2022-12-26T09:46:37.786Z,0.30
2022-12-26T09:49:11.668Z,0.45
2022-12-26T09:51:44.340Z,0.45
2022-12-26T09:54:20.495Z,0.60
2022-12-26T09:57:09.898Z,0.35
2022-12-26T09:59:47.448Z,0.35
2022-12-26T10:02:19.748Z,0.30
2022-12-26T10:04:48.973Z,0.38
2022-12-26T10:07:23.939Z,0.30
2022-12-26T10:10:02.785Z,0.45
2022-12-26T10:12:39.563Z,0.57
2022-12-26T10:15:25.211Z,0.22
2022-12-26T10:18:01.224Z,0.20
2022-12-26T10:20:37.659Z,0.10
2022-12-26T10:23:22.921Z,0.20
2022-12-26T10:25:57.060Z,0.45
2022-12-26T10:28:33.298Z,0.50
2022-12-26T10:31:05.950Z,0.68
2022-12-26T10:33:39.660Z,0.50
2022-12-26T10:36:16.369Z,0.20
2022-12-26T10:38:48.020Z,0.30
2022-12-26T10:41:24.254Z,0.30
2022-12-26T10:43:52.967Z,0.38
2022-12-26T10:46:40.083Z,0.20
2022-12-26T10:49:11.950Z,0.43
2022-12-26T10:51:40.388Z,0.30
2022-12-26T10:54:16.797Z,0.60
2022-12-26T10:56:48.331Z,0.10
2022-12-26T10:59:19.699Z,0.65
2022-12-26T11:01:48.874Z,0.20
2022-12-26T11:07:12.669Z,0.35
2022-12-26T11:09:42.727Z,0.20
2022-12-26T11:12:22.024Z,0.40
2022-12-26T11:14:50.470Z,0.47
2022-12-26T11:17:27.955Z,0.17
2022-12-26T11:20:23.892Z,0.20
2022-12-26T11:22:52.443Z,0.38
2022-12-26T11:25:23.351Z,0.20
2022-12-26T11:27:55.130Z,0.40
2022-12-26T11:30:32.403Z,0.20
2022-12-26T11:33:14.915Z,0.10
2022-12-26T11:35:55.304Z,0.30
2022-12-26T11:38:45.224Z,0.30
2022-12-26T11:41:34.553Z,0.32
2022-12-26T11:44:14.319Z,0.30
2022-12-26T11:46:45.631Z,0.30
2022-12-26T11:49:35.232Z,0.47
2022-12-26T11:52:24.516Z,0.22
2022-12-26T11:54:53.112Z,0.50
2022-12-26T11:57:23.772Z,0.13
2022-12-26T11:59:54.410Z,0.10
2022-12-26T12:02:27.313Z,0.20
2022-12-26T12:04:59.880Z,0.27
2022-12-26T12:07:58.128Z,0.30
2022-12-26T12:10:48.787Z,0.88
2022-12-26T12:13:27.252Z,0.15
2022-12-26T12:16:05.248Z,0.30
2022-12-26T12:18:45.199Z,0.25
2022-12-26T12:21:22.031Z,0.15
2022-12-26T12:41:56.830Z,0.20
2022-12-26T12:47:07.464Z,0.32
2022-12-26T12:49:45.651Z,0.35
2022-12-26T12:52:28.321Z,0.57
2022-12-26T12:55:20.004Z,0.45
2022-12-26T12:57:54.025Z,0.65
2022-12-26T13:00:24.320Z,0.25
2022-12-26T13:02:58.120Z,0.60
2022-12-26T13:08:04.923Z,0.20
2022-12-26T13:10:35.603Z,0.47
2022-12-26T13:13:12.915Z,0.30
2022-12-26T13:20:30.163Z,0.43
2022-12-26T13:23:22.799Z,0.10
2022-12-26T13:26:04.866Z,0.13
2022-12-26T13:28:41.230Z,0.08
2022-12-26T13:31:09.568Z,0.40
2022-12-26T13:33:37.910Z,0.20
2022-12-26T13:36:06.832Z,0.22
2022-12-26T13:39:12.134Z,0.17
2022-12-26T13:42:04.669Z,0.20
2022-12-26T13:44:34.209Z,0.03
2022-12-26T13:47:02.526Z,0.10
2022-12-26T13:49:39.764Z,0.47
2022-12-26T13:52:34.286Z,0.32
2022-12-26T13:58:19.452Z,0.60
2022-12-26T14:00:51.051Z,0.50
2022-12-26T14:03:47.073Z,0.50
2022-12-26T14:06:28.320Z,0.08
2022-12-26T14:09:13.060Z,0.30
2022-12-26T14:11:52.681Z,0.40
2022-12-26T14:14:32.137Z,0.20
2022-12-26T14:17:14.086Z,0.35
2022-12-26T14:19:52.354Z,0.55
2022-12-26T14:22:28.815Z,0.30
2022-12-26T14:25:10.404Z,0.30
2022-12-26T14:27:45.978Z,0.38
2022-12-26T14:30:36.340Z,0.15
2022-12-26T14:33:24.167Z,0.47
2022-12-26T14:36:03.782Z,0.40
2022-12-26T14:38:45.315Z,0.60
2022-12-26T14:41:35.845Z,0.30
2022-12-26T14:44:36.228Z,0.30
2022-12-26T14:47:06.357Z,0.25
2022-12-26T14:49:42.848Z,0.17
2022-12-26T14:52:37.581Z,0.30
2022-12-26T14:55:43.089Z,0.10
2022-12-26T14:58:38.798Z,0.30
2022-12-26T15:01:41.078Z,0.22
2022-12-26T15:04:23.666Z,0.68
2022-12-26T15:07:20.780Z,0.80
2022-12-26T15:10:13.911Z,0.40
2022-12-26T15:13:15.775Z,0.40
2022-12-26T15:16:03.876Z,0.25
2022-12-26T15:19:02.611Z,0.55
2022-12-26T15:22:00.666Z,0.60
2022-12-26T15:28:15.850Z,0.80
2022-12-26T15:31:10.420Z,0.40
2022-12-26T15:33:41.641Z,0.70
2022-12-26T15:36:21.353Z,0.40
2022-12-26T15:38:57.089Z,0.77
2022-12-26T15:41:37.146Z,0.57
2022-12-26T15:44:20.006Z,0.93
2022-12-26T15:46:57.098Z,0.57
2022-12-26T15:49:38.248Z,0.70
2022-12-26T15:52:21.260Z,0.98
2022-12-26T15:55:05.801Z,0.73
2022-12-26T15:57:46.939Z,0.88
2022-12-26T16:00:18.876Z,0.77
2022-12-26T16:02:56.511Z,0.70
2022-12-26T16:05:35.956Z,1.02
2022-12-26T16:08:20.618Z,0.75
2022-12-26T16:10:55.581Z,0.90
2022-12-26T16:13:25.706Z,0.65
2022-12-26T16:15:58.335Z,1.00
2022-12-26T16:18:30.828Z,0.95
2022-12-26T16:21:16.440Z,0.60
2022-12-26T16:23:46.809Z,0.55
2022-12-26T16:26:20.489Z,0.73
2022-12-26T16:28:50.150Z,1.40
2022-12-26T16:31:21.853Z,0.60
2022-12-26T16:33:52.950Z,0.57
2022-12-26T16:36:23.424Z,0.70
2022-12-26T16:38:52.529Z,0.65
2022-12-26T16:41:23.146Z,0.52
2022-12-26T16:43:54.738Z,0.47
2022-12-26T16:46:26.612Z,0.82
2022-12-26T16:48:58.201Z,0.47
2022-12-26T16:51:40.667Z,0.70
2022-12-26T16:54:29.124Z,0.65
2022-12-26T16:57:04.750Z,0.40
2022-12-26T16:59:41.876Z,0.77
2022-12-26T17:02:19.163Z,0.50
2022-12-26T17:04:58.280Z,1.10
2022-12-26T17:07:27.608Z,0.95
2022-12-26T17:09:57.889Z,0.70
2022-12-26T17:12:29.110Z,0.50
2022-12-26T17:15:00.506Z,0.80
2022-12-26T17:17:32.156Z,1.20
2022-12-26T17:20:38.874Z,1.73
2022-12-26T17:23:44.451Z,2.40
2022-12-26T17:26:19.703Z,0.90
2022-12-26T17:28:47.921Z,0.77
2022-12-26T17:31:24.728Z,0.60
2022-12-26T17:33:56.995Z,0.60
2022-12-26T17:37:17.804Z,0.43
2022-12-26T17:39:22.348Z,0.80
2022-12-26T17:41:53.020Z,0.80
2022-12-26T17:44:41.404Z,1.70
2022-12-26T17:47:18.802Z,0.80
2022-12-26T17:49:47.613Z,0.93
2022-12-26T17:52:18.915Z,0.70
2022-12-26T17:54:49.098Z,1.20
2022-12-26T17:57:20.850Z,1.20
2022-12-26T17:59:50.610Z,0.95
2022-12-26T18:02:21.229Z,1.10
2022-12-26T18:04:50.111Z,0.40
2022-12-26T18:07:28.728Z,0.75
2022-12-26T18:09:59.149Z,0.43
2022-12-26T18:12:27.306Z,0.55
2022-12-26T18:15:01.352Z,1.20
2022-12-26T18:17:34.331Z,1.67
2022-12-26T18:20:02.875Z,2.15
2022-12-26T18:22:31.046Z,1.98
2022-12-26T18:24:59.269Z,1.98
2022-12-26T18:27:31.297Z,0.88
2022-12-26T18:29:59.871Z,1.20
2022-12-26T18:32:30.117Z,1.42
2022-12-26T18:35:00.644Z,0.75
2022-12-26T18:37:30.871Z,0.82
2022-12-26T18:39:59.155Z,1.35
2022-12-26T18:42:27.438Z,4.68
2022-12-26T18:44:55.991Z,4.15
2022-12-26T18:47:24.226Z,1.30
2022-12-26T18:49:52.510Z,2.30
2022-12-26T18:52:22.021Z,1.80
2022-12-26T18:54:50.359Z,1.60
2022-12-26T18:57:21.327Z,1.40
2022-12-26T18:59:49.726Z,1.65
2022-12-26T19:02:20.358Z,2.03
2022-12-26T19:04:49.587Z,1.10
2022-12-26T19:07:20.329Z,1.33
2022-12-26T19:09:55.062Z,1.23
2022-12-26T19:12:24.501Z,1.83
2022-12-26T19:14:53.043Z,1.45
2022-12-26T19:17:21.214Z,1.40
2022-12-26T19:19:49.399Z,1.40
2022-12-26T19:22:17.647Z,1.20
2022-12-26T19:24:46.735Z,1.13
2022-12-26T19:27:16.260Z,1.63
2022-12-26T19:29:44.452Z,1.58
2022-12-26T19:32:12.709Z,1.05
2022-12-26T19:34:40.884Z,0.35
2022-12-26T19:37:09.228Z,0.70
2022-12-26T19:39:37.328Z,1.27
2022-12-26T19:42:05.589Z,1.85
2022-12-26T19:44:35.097Z,0.55
2022-12-26T19:47:10.958Z,0.85
2022-12-26T19:49:40.696Z,1.10
2022-12-26T19:52:08.940Z,0.85
2022-12-26T19:54:37.277Z,0.35
2022-12-26T19:57:05.624Z,0.73
2022-12-26T19:59:35.433Z,0.60
2022-12-26T20:02:03.908Z,0.80
2022-12-26T20:04:32.404Z,0.43
2022-12-26T20:07:01.379Z,0.80
2022-12-26T20:09:29.848Z,0.55
2022-12-26T20:11:58.747Z,0.50
2022-12-26T20:14:28.919Z,0.38
2022-12-26T20:17:05.473Z,0.38
2022-12-26T20:19:36.197Z,0.40
2022-12-26T20:22:04.840Z,1.73
2022-12-26T20:24:33.064Z,1.08
2022-12-26T20:27:01.253Z,0.43
2022-12-26T20:29:29.550Z,0.75
2022-12-26T20:31:59.170Z,1.65
2022-12-26T20:34:27.462Z,0.95
2022-12-26T20:36:56.399Z,1.05
2022-12-26T20:39:25.656Z,0.60
2022-12-26T20:41:54.006Z,1.20
2022-12-26T20:44:22.267Z,0.63
2022-12-26T20:46:50.546Z,0.82
2022-12-26T20:49:20.012Z,0.93
2022-12-26T20:51:48.220Z,0.93
2022-12-26T20:54:17.539Z,0.73
2022-12-26T20:56:46.708Z,0.63
2022-12-26T20:59:14.967Z,0.57
2022-12-26T21:01:43.756Z,0.70
2022-12-26T21:04:18.788Z,0.40
2022-12-26T21:06:50.395Z,0.50
2022-12-26T21:09:18.784Z,0.90
2022-12-26T21:11:47.121Z,0.30
2022-12-26T21:14:17.393Z,0.25
2022-12-26T21:16:49.120Z,0.50
2022-12-26T21:19:18.135Z,1.25
2022-12-26T21:21:49.610Z,0.90
2022-12-26T21:24:20.333Z,0.90
2022-12-26T21:26:49.206Z,0.32
2022-12-26T21:29:19.847Z,0.30
2022-12-26T21:31:49.039Z,0.20
2022-12-26T21:34:19.334Z,0.60
2022-12-26T21:37:03.235Z,0.60
2022-12-26T21:39:32.168Z,0.35
2022-12-26T21:42:00.469Z,0.25
2022-12-26T21:44:30.424Z,0.22
2022-12-26T21:46:58.736Z,0.13
2022-12-26T21:49:27.227Z,0.93
2022-12-26T21:51:56.787Z,0.47
2022-12-26T21:54:48.792Z,0.85
2022-12-26T21:57:18.117Z,0.65
2022-12-26T22:00:03.871Z,0.38
2022-12-26T22:02:52.163Z,0.40
2022-12-26T22:05:21.905Z,0.50
2022-12-26T22:07:53.844Z,0.75
2022-12-26T22:10:39.538Z,0.35
2022-12-26T22:13:09.946Z,0.20
2022-12-26T22:16:01.915Z,0.22
2022-12-26T22:18:34.673Z,0.35
2022-12-26T22:21:08.853Z,0.30
2022-12-26T22:23:42.834Z,0.57
2022-12-26T22:28:44.672Z,0.85
2022-12-26T22:31:19.903Z,0.68
2022-12-26T22:33:48.187Z,0.60
2022-12-26T22:36:16.353Z,0.93
2022-12-26T22:38:45.918Z,0.65
2022-12-26T22:41:14.139Z,0.25
2022-12-26T22:43:43.347Z,0.50
2022-12-26T22:46:11.974Z,0.28
2022-12-26T22:48:40.745Z,0.43
2022-12-26T22:51:09.257Z,0.17
2022-12-26T22:53:37.439Z,0.85
2022-12-26T22:56:07.717Z,0.40
2022-12-26T22:58:36.075Z,0.52
2022-12-26T23:01:04.605Z,0.32
2022-12-26T23:03:32.886Z,0.50
2022-12-26T23:06:01.357Z,0.50
2022-12-26T23:08:29.913Z,0.22
2022-12-26T23:10:59.708Z,0.90
2022-12-26T23:13:29.736Z,0.60
2022-12-26T23:16:04.706Z,0.40
2022-12-26T23:18:55.308Z,0.22
2022-12-26T23:21:45.885Z,0.50
2022-12-26T23:24:17.504Z,0.13
2022-12-26T23:26:47.773Z,0.45
2022-12-26T23:29:38.288Z,0.30
2022-12-26T23:32:07.516Z,0.38
2022-12-26T23:34:36.591Z,0.40
2022-12-26T23:37:04.959Z,0.40
2022-12-26T23:39:33.140Z,0.20
2022-12-26T23:42:01.378Z,0.35
2022-12-26T23:44:32.576Z,0.13
2022-12-26T23:47:00.822Z,0.35
2022-12-26T23:49:29.047Z,0.43
2022-12-26T23:51:57.307Z,0.15
2022-12-26T23:54:25.575Z,0.52
2022-12-26T23:56:54.075Z,0.30
2022-12-26T23:59:22.423Z,0.28
